Time;durP1;ratioP1;P1;durP2;ratioP2;P2;SDS_P1;SDS_P2;PMS_P1;PMS_P2;Temp;Humidity;BMP_temperature;BMP_pressure;BME280_temperature;BME280_humidity;BME280_pressure;Samples;Min_cycle;Max_cycle;Signal;HPM_P1;HPM_P2
2022/09/02 00:03:44;;;;;;;4.03;1.67;;;;;;;23.54;34.83;101494.88;16149121;19;128964;-70
2022/09/02 00:09:08;;;;;;;2.55;1.70;;;;;;;23.50;34.96;101487.03;16149473;19;129793;-71
2022/09/02 00:14:38;;;;;;;5.35;1.70;;;;;;;23.52;34.91;101489.53;16147919;19;129307;-71
2022/09/02 00:20:00;;;;;;;3.95;1.77;;;;;;;23.49;35.12;101484.50;16144763;19;129303;-70
2022/09/02 00:25:22;;;;;;;2.67;1.30;;;;;;;23.47;34.99;101476.38;16148686;19;129315;-71
2022/09/02 00:30:44;;;;;;;4.05;2.03;;;;;;;23.46;34.91;101477.47;16146546;19;129258;-71
2022/09/02 00:36:06;;;;;;;4.47;1.60;;;;;;;23.44;34.84;101471.34;16144462;19;129390;-70
2022/09/02 00:41:28;;;;;;;6.13;2.17;;;;;;;23.46;34.96;101473.88;16143936;19;130153;-71
2022/09/02 00:46:50;;;;;;;4.13;1.58;;;;;;;23.42;34.95;101467.13;16144356;19;131638;-71
2022/09/02 00:52:19;;;;;;;3.78;1.50;;;;;;;23.42;34.85;101470.75;16145258;19;129695;-71
2022/09/02 00:58:04;;;;;;;2.63;1.40;;;;;;;23.43;34.86;101466.00;16140818;19;130070;-71
2022/09/02 01:03:32;;;;;;;2.85;1.58;;;;;;;23.42;34.64;101464.31;16144755;19;130075;-70
2022/09/02 01:09:00;;;;;;;2.50;1.20;;;;;;;23.41;34.99;101462.63;16145571;19;129165;-70
2022/09/02 01:14:23;;;;;;;2.60;1.30;;;;;;;23.40;34.99;101460.94;16144111;19;129279;-71
2022/09/02 01:19:54;;;;;;;2.97;1.25;;;;;;;23.40;35.31;101455.38;16144028;19;129424;-70
2022/09/02 01:25:19;;;;;;;2.33;1.30;;;;;;;23.40;34.88;101452.56;16143976;19;129347;-70
2022/09/02 01:30:47;;;;;;;5.38;1.40;;;;;;;23.40;35.16;101460.94;16143432;19;129730;-70
2022/09/02 01:36:09;;;;;;;2.38;1.30;;;;;;;23.37;35.14;101456.75;16142287;19;129556;-70
2022/09/02 01:41:31;;;;;;;4.53;1.30;;;;;;;23.37;35.31;101453.13;16141717;19;129435;-71
2022/09/02 01:46:53;;;;;;;2.08;1.20;;;;;;;23.35;35.20;101451.44;16141128;19;132392;-70
2022/09/02 01:52:16;;;;;;;2.45;1.10;;;;;;;23.35;35.07;101448.66;16138623;19;129335;-70
2022/09/02 01:57:38;;;;;;;2.72;1.25;;;;;;;23.32;34.97;101446.38;16136067;19;129835;-70
2022/09/02 02:03:00;;;;;;;1.95;1.10;;;;;;;23.32;35.14;101449.19;16144803;19;129641;-70
2022/09/02 02:08:23;;;;;;;2.67;1.20;;;;;;;23.31;35.03;101450.28;16140330;19;129516;-70
2022/09/02 02:13:48;;;;;;;2.70;1.08;;;;;;;23.29;35.39;101446.91;16137474;19;129177;-70
2022/09/02 02:19:10;;;;;;;2.08;0.90;;;;;;;23.30;35.16;101436.59;16137555;19;129070;-70
2022/09/02 02:24:33;;;;;;;2.33;1.10;;;;;;;23.30;35.31;101443.00;16141711;19;130301;-70
2022/09/02 02:29:55;;;;;;;2.15;1.00;;;;;;;23.29;35.38;101435.75;16140834;19;128943;-70
2022/09/02 02:35:18;;;;;;;2.05;1.20;;;;;;;23.28;35.23;101427.66;16139855;19;130208;-70
2022/09/02 02:40:39;;;;;;;2.90;1.10;;;;;;;23.27;35.72;101428.75;16139753;19;129568;-70
2022/09/02 02:46:02;;;;;;;2.33;1.00;;;;;;;23.27;35.33;101421.19;16136791;19;129220;-70
2022/09/02 02:51:25;;;;;;;3.22;1.20;;;;;;;23.27;35.04;101426.78;16138428;19;129564;-70
2022/09/02 02:56:47;;;;;;;1.60;0.90;;;;;;;23.26;35.49;101430.72;16134937;19;129009;-70
2022/09/02 03:02:08;;;;;;;2.75;1.15;;;;;;;23.25;35.42;101422.59;16137708;19;129708;-69
2022/09/02 03:07:31;;;;;;;1.52;1.08;;;;;;;23.24;35.55;101427.34;16138679;19;129452;-70
2022/09/02 03:12:53;;;;;;;1.50;0.90;;;;;;;23.23;35.47;101417.28;16137595;19;129528;-70
2022/09/02 03:18:15;;;;;;;1.35;0.85;;;;;;;23.22;35.60;101420.31;16133721;19;129490;-69
2022/09/02 03:23:37;;;;;;;1.58;1.00;;;;;;;23.21;35.59;101422.28;16136903;19;129386;-69
2022/09/02 03:28:58;;;;;;;1.92;1.10;;;;;;;23.22;35.52;101417.53;16135855;19;128816;-70
2022/09/02 03:34:20;;;;;;;1.55;0.82;;;;;;;23.21;35.94;101411.13;16133237;19;129587;-69
2022/09/02 03:39:42;;;;;;;2.70;0.90;;;;;;;23.21;35.53;101405.53;16129928;19;129059;-69
2022/09/02 03:45:05;;;;;;;2.75;0.95;;;;;;;23.20;35.33;101412.22;16161715;19;129776;-70
2022/09/02 03:50:35;;;;;;;1.70;0.95;;;;;;;23.19;35.28;101414.19;16217356;19;129529;-69
2022/09/02 03:56:02;;;;;;;1.80;0.98;;;;;;;23.19;35.73;101407.75;16213823;19;128204;-69
2022/09/02 04:01:26;;;;;;;1.45;0.68;;;;;;;23.17;35.63;101405.22;16215097;19;128190;-69
2022/09/02 04:06:54;;;;;;;1.58;0.68;;;;;;;23.18;35.64;101404.13;16216244;19;129543;-70
2022/09/02 04:12:16;;;;;;;2.90;0.70;;;;;;;23.17;35.90;101393.22;16215338;19;129504;-70
2022/09/02 04:17:40;;;;;;;0.95;0.80;;;;;;;23.17;35.62;101396.84;16228406;19;127998;-69
2022/09/02 04:23:02;;;;;;;1.30;0.73;;;;;;;23.17;35.79;101387.63;16230905;19;129134;-70
2022/09/02 04:28:24;;;;;;;0.93;0.52;;;;;;;23.17;35.81;101390.41;16229191;19;128500;-69
2022/09/02 04:33:46;;;;;;;0.68;0.60;;;;;;;23.15;35.92;101384.25;16229055;19;130445;-69
2022/09/02 04:39:08;;;;;;;5.18;0.70;;;;;;;23.16;35.78;101385.94;16224884;19;129997;-69
2022/09/02 04:44:30;;;;;;;2.03;0.93;;;;;;;23.15;35.98;101385.13;16229728;19;128265;-69
2022/09/02 04:49:52;;;;;;;1.08;0.60;;;;;;;23.15;35.55;101389.84;16224572;19;129149;-70
2022/09/02 04:55:14;;;;;;;1.55;0.88;;;;;;;23.12;35.71;101385.63;16226761;19;128593;-69
2022/09/02 05:00:37;;;;;;;1.30;0.75;;;;;;;23.13;35.72;101380.91;16229521;19;129435;-69
2022/09/02 05:06:03;;;;;;;2.53;0.70;;;;;;;23.13;35.97;101386.50;16227964;19;129176;-69
2022/09/02 05:11:29;;;;;;;;;;;;;;;23.09;36.00;101390.91;16222119;19;129383;-67
2022/09/02 05:16:52;;;;;;;;;;;;;;;23.09;36.06;101388.94;16226842;19;130771;-68
2022/09/02 05:22:14;;;;;;;3.70;1.00;;;;;;;23.10;35.79;101389.81;16212152;19;129412;-71
2022/09/02 05:27:36;;;;;;;3.60;0.95;;;;;;;23.10;36.06;101387.03;16224105;19;128163;-71
2022/09/02 05:32:58;;;;;;;5.78;1.10;;;;;;;23.10;36.08;101387.84;16209071;19;129264;-71
2022/09/02 05:38:20;;;;;;;2.95;1.10;;;;;;;23.12;36.24;101384.81;16142073;19;129432;-72
2022/09/02 05:43:47;;;;;;;6.10;1.00;;;;;;;23.12;36.14;101380.06;16144180;19;131025;-65
2022/09/02 05:49:11;;;;;;;2.33;0.95;;;;;;;23.13;36.24;101390.13;16138573;19;129204;-72
2022/09/02 05:54:35;;;;;;;5.05;1.20;;;;;;;23.13;36.57;101386.50;16140975;19;128895;-73
2022/09/02 05:59:57;;;;;;;5.03;1.00;;;;;;;23.13;36.30;101386.50;16137662;19;130548;-72
2022/09/02 06:05:19;;;;;;;5.93;1.30;;;;;;;23.12;36.45;101379.22;16143288;19;129151;-72
2022/09/02 06:10:42;;;;;;;5.05;1.30;;;;;;;23.13;36.29;101380.91;16143680;19;129405;-73
2022/09/02 06:16:05;;;;;;;6.55;0.90;;;;;;;23.12;36.50;101390.41;16142190;19;129377;-73
2022/09/02 06:21:26;;;;;;;2.70;1.00;;;;;;;23.11;36.40;101391.50;16139994;19;129192;-73
2022/09/02 06:26:48;;;;;;;3.05;0.90;;;;;;;23.11;36.44;101383.94;16140488;19;130054;-73
2022/09/02 06:32:15;;;;;;;3.72;0.98;;;;;;;23.14;36.07;101382.59;16142731;19;128902;-72
2022/09/02 06:37:37;;;;;;;6.78;1.35;;;;;;;23.17;36.43;101382.91;16136755;19;129820;-73
2022/09/02 06:42:59;;;;;;;6.60;1.17;;;;;;;23.23;36.31;101375.41;16142951;19;132761;-73
2022/09/02 06:48:21;;;;;;;3.13;1.00;;;;;;;23.28;36.18;101375.44;16137190;19;129457;-69
2022/09/02 06:53:42;;;;;;;2.60;1.30;;;;;;;23.35;36.22;101373.28;16139292;19;129065;-73
2022/09/02 06:59:05;;;;;;;3.08;1.20;;;;;;;23.41;36.07;101373.28;16134818;19;130498;-73
2022/09/02 07:10:10;;;;;;;5.40;1.00;;;;;;;23.52;36.39;101366.66;16140094;19;130204;-71
2022/09/02 07:15:33;;;;;;;2.75;0.82;;;;;;;23.60;35.97;101368.16;16137359;19;129412;-71
2022/09/02 07:20:55;;;;;;;3.88;1.02;;;;;;;23.66;36.20;101358.69;16135151;19;129536;-68
2022/09/02 07:26:17;;;;;;;3.75;1.20;;;;;;;23.72;36.13;101359.56;16134609;19;130144;-67
2022/09/02 07:31:42;;;;;;;4.13;1.00;;;;;;;23.78;36.02;101358.47;16135411;19;129439;-68
2022/09/02 07:37:05;;;;;;;4.88;1.08;;;;;;;23.80;36.21;101356.25;16133961;19;129940;-69
2022/09/02 07:42:31;;;;;;;6.13;1.02;;;;;;;23.84;36.25;101351.81;16133821;19;129136;-70
2022/09/02 07:47:53;;;;;;;4.05;0.70;;;;;;;23.86;36.08;101345.94;16131133;19;131243;-72
2022/09/02 07:53:16;;;;;;;5.85;0.85;;;;;;;23.87;35.98;101345.69;16148178;19;129027;-71
2022/09/02 07:58:41;;;;;;;9.68;1.00;;;;;;;23.86;35.91;101338.41;16143734;19;129790;-71
2022/09/02 08:04:03;;;;;;;2.95;1.10;;;;;;;23.88;36.10;101335.34;16146254;19;129597;-71
2022/09/02 08:09:26;;;;;;;8.27;1.10;;;;;;;23.90;36.08;101333.13;16140388;19;129415;-71
2022/09/02 08:14:49;;;;;;;5.43;1.40;;;;;;;23.93;36.42;101338.16;16143588;19;129952;-72
2022/09/02 08:20:13;;;;;;;4.03;0.90;;;;;;;23.96;36.28;101334.81;16143764;19;129434;-72
2022/09/02 08:25:35;;;;;;;6.15;1.15;;;;;;;23.97;36.12;101334.56;16144474;19;129783;-72
2022/09/02 08:30:57;;;;;;;10.48;1.65;;;;;;;23.99;35.95;101327.84;16145158;19;130004;-72
2022/09/02 08:36:19;;;;;;;10.85;1.63;;;;;;;24.00;35.98;101330.34;16145505;19;130320;-72
2022/09/02 08:41:53;;;;;;;3.53;1.00;;;;;;;23.99;36.02;101325.06;16146276;19;129542;-71
2022/09/02 08:47:21;;;;;;;11.82;1.50;;;;;;;23.98;35.75;101329.78;16142492;19;128927;-71
2022/09/02 08:52:43;;;;;;;6.45;1.05;;;;;;;23.96;36.31;101324.47;16145609;19;129388;-71
2022/09/02 08:58:05;;;;;;;3.83;0.93;;;;;;;23.94;35.92;101318.31;16142688;19;130175;-72
2022/09/02 09:04:31;;;;;;;4.15;1.10;;;;;;;23.92;35.83;101314.94;16137369;19;129541;-69
2022/09/02 09:09:59;;;;;;;4.45;1.63;;;;;;;23.92;36.25;101311.34;16143553;19;129697;-70
2022/09/02 09:15:35;;;;;;;4.00;1.30;;;;;;;23.91;36.07;101315.25;16145697;19;130166;-71
2022/09/02 09:20:57;;;;;;;3.55;1.20;;;;;;;23.90;35.96;101317.16;16137827;19;129213;-72
2022/09/02 09:26:27;;;;;;;2.60;0.93;;;;;;;23.91;35.90;101312.44;16139567;19;129786;-70
2022/09/02 09:31:58;;;;;;;4.68;1.15;;;;;;;23.92;35.77;101302.94;16144793;19;129372;-71
2022/09/02 09:37:31;;;;;;;3.63;1.15;;;;;;;23.93;35.86;101310.22;16143592;19;129664;-69
2022/09/02 09:43:04;;;;;;;2.70;1.05;;;;;;;23.91;35.77;101302.09;16142289;19;128955;-69
2022/09/02 09:48:48;;;;;;;2.70;1.23;;;;;;;23.93;35.82;101299.88;16135955;19;130328;-68
2022/09/02 09:54:15;;;;;;;5.27;1.20;;;;;;;23.92;35.87;101298.19;16141347;19;130493;-67
2022/09/02 09:59:44;;;;;;;4.15;1.02;;;;;;;23.93;35.56;101296.25;16136740;19;129420;-67
2022/09/02 10:05:17;;;;;;;1.98;1.00;;;;;;;23.92;35.68;101281.41;16136445;19;129374;-67
2022/09/02 10:10:39;;;;;;;4.20;1.40;;;;;;;23.93;36.06;101285.06;16141555;19;129189;-71
2022/09/02 10:16:33;;;;;;;5.97;1.08;;;;;;;23.93;35.42;101280.31;16140483;19;130162;-68
2022/09/02 10:22:25;;;;;;;2.00;1.13;;;;;;;23.95;35.48;101275.28;16137856;19;130474;-66
2022/09/02 10:28:19;;;;;;;3.70;1.13;;;;;;;23.94;35.27;101264.38;16138055;19;132162;-65
2022/09/02 10:34:02;;;;;;;2.22;0.93;;;;;;;23.95;35.08;101264.13;16137931;19;129253;-68
2022/09/02 10:39:38;;;;;;;10.30;1.48;;;;;;;23.98;35.09;101254.34;16136093;19;129326;-69
2022/09/02 10:45:23;;;;;;;6.00;1.00;;;;;;;24.00;35.31;101248.50;16133604;19;129122;-67
2022/09/02 10:50:54;;;;;;;4.15;1.27;;;;;;;24.00;34.88;101245.69;16140537;19;129368;-67
2022/09/02 10:56:20;;;;;;;7.90;1.65;;;;;;;23.96;34.85;101237.84;16138460;19;129361;-66
2022/09/02 11:01:45;;;;;;;6.80;1.33;;;;;;;23.98;34.46;101220.78;16129358;19;128994;-68
2022/09/02 11:07:10;;;;;;;6.20;1.17;;;;;;;23.99;34.61;101219.69;16132368;19;128900;-66
2022/09/02 11:12:44;;;;;;;2.15;1.20;;;;;;;24.01;34.65;101211.00;16136684;19;131090;-65
2022/09/02 11:18:16;;;;;;;8.73;1.90;;;;;;;24.00;34.61;101206.56;16137269;19;129440;-68
2022/09/02 11:23:50;;;;;;;5.65;1.20;;;;;;;24.01;34.96;101200.69;16138232;19;129541;-67
2022/09/02 11:29:33;;;;;;;8.50;1.13;;;;;;;24.03;34.95;101197.59;16154669;19;129537;-62
2022/09/02 11:34:58;;;;;;;2.42;0.98;;;;;;;24.01;34.98;101189.50;16152156;19;129328;-63
2022/09/02 11:40:30;;;;;;;5.90;1.30;;;;;;;24.03;34.97;101192.03;16147371;19;130124;-65
2022/09/02 11:46:30;;;;;;;5.13;1.00;;;;;;;24.05;35.09;101184.19;16152002;19;129248;-65
2022/09/02 11:52:25;;;;;;;4.67;1.20;;;;;;;24.03;34.51;101170.53;16150702;19;129961;-66
2022/09/02 11:57:56;;;;;;;1.55;1.00;;;;;;;24.05;35.23;101173.03;16147803;19;129582;-67
2022/09/02 12:03:28;;;;;;;3.22;1.02;;;;;;;24.05;34.92;101171.09;16151226;19;129728;-66
2022/09/02 12:09:10;;;;;;;3.15;1.00;;;;;;;24.07;34.84;101156.81;16150895;19;129408;-64
2022/09/02 12:14:33;;;;;;;4.25;1.25;;;;;;;24.07;34.83;101160.44;16149761;19;128994;-65
2022/09/02 12:19:54;;;;;;;3.70;1.10;;;;;;;24.08;34.87;101161.28;16145198;19;129515;-65
2022/09/02 12:25:24;;;;;;;4.10;1.00;;;;;;;24.10;34.92;101148.72;16148624;19;129273;-68
2022/09/02 12:31:26;;;;;;;3.28;1.20;;;;;;;24.10;34.55;101153.47;16147451;19;128875;-68
2022/09/02 12:36:58;;;;;;;2.72;1.23;;;;;;;24.10;34.46;101145.91;16135287;19;129498;-64
2022/09/02 12:42:30;;;;;;;3.95;1.20;;;;;;;24.11;34.53;101138.38;16137085;19;129640;-65
2022/09/02 12:48:17;;;;;;;4.85;0.70;;;;;;;24.08;34.70;101124.97;16135192;19;129492;-60
2022/09/02 12:54:00;;;;;;;3.75;1.15;;;;;;;24.08;34.49;101123.00;16140337;19;129430;-69
2022/09/02 12:59:29;;;;;;;3.72;1.08;;;;;;;24.11;34.38;101116.84;16135464;19;129954;-63
2022/09/02 13:04:59;;;;;;;1.73;0.88;;;;;;;24.14;34.53;101115.44;16141075;19;129561;-69
2022/09/02 13:10:42;;;;;;;1.20;0.85;;;;;;;24.17;34.29;101109.31;16141835;19;130699;-64
2022/09/02 13:16:31;;;;;;;4.78;1.20;;;;;;;24.19;34.07;101107.06;16146271;19;129292;-62
2022/09/02 13:22:07;;;;;;;8.07;1.15;;;;;;;24.19;34.18;101104.28;16142122;19;129472;-65
2022/09/02 13:27:39;;;;;;;5.88;1.20;;;;;;;24.19;34.02;101098.69;16146843;19;129271;-67
2022/09/02 13:33:06;;;;;;;6.70;1.02;;;;;;;24.21;34.26;101099.25;16149065;19;129180;-67
2022/09/02 13:38:29;;;;;;;3.53;0.93;;;;;;;24.24;33.77;101086.66;16147186;19;129450;-65
2022/09/02 13:44:05;;;;;;;5.15;1.30;;;;;;;24.27;33.55;101092.56;16146503;19;129089;-67
2022/09/02 13:49:35;;;;;;;4.10;1.00;;;;;;;24.25;33.83;101083.59;16141074;19;129431;-71
2022/09/02 13:54:58;;;;;;;7.28;0.98;;;;;;;24.27;33.49;101080.53;16146073;19;128727;-70
2022/09/02 14:00:47;;;;;;;3.72;1.30;;;;;;;24.29;33.32;101063.47;16140687;19;129361;-66
2022/09/02 14:06:08;;;;;;;12.05;1.30;;;;;;;24.30;33.38;101056.75;16145091;19;129155;-64
2022/09/02 14:11:39;;;;;;;5.47;1.42;;;;;;;24.32;33.38;101046.16;16145654;19;129307;-71
2022/09/02 14:17:17;;;;;;;5.18;1.02;;;;;;;24.34;33.19;101049.50;16145074;19;129425;-62
2022/09/02 14:22:40;;;;;;;2.00;0.90;;;;;;;24.34;33.56;101035.53;16140656;19;129428;-64
2022/09/02 14:28:09;;;;;;;2.20;0.93;;;;;;;24.35;33.03;101028.81;16145410;19;128946;-70
2022/09/02 14:33:44;;;;;;;2.78;0.80;;;;;;;24.38;33.04;101025.44;16143470;19;130102;-67
2022/09/02 14:39:09;;;;;;;6.77;1.10;;;;;;;24.37;33.02;101021.81;16141956;19;129166;-70
2022/09/02 14:44:35;;;;;;;1.07;0.97;;;;;;;24.37;32.92;101019.00;16144469;19;129442;-66
2022/09/02 14:49:56;;;;;;;4.38;1.48;;;;;;;24.38;32.95;101020.69;16138184;19;129277;-64
2022/09/02 14:55:45;;;;;;;2.30;0.85;;;;;;;24.40;32.83;101010.06;16136540;19;129837;-65
2022/09/02 15:01:07;;;;;;;4.93;1.08;;;;;;;24.39;33.27;101004.72;16130062;19;129108;-65
2022/09/02 15:06:29;;;;;;;3.70;0.93;;;;;;;24.37;32.95;101007.81;16137398;19;129597;-65
2022/09/02 15:11:53;;;;;;;4.18;0.80;;;;;;;24.36;33.28;100994.97;16137496;19;129424;-65
2022/09/02 15:17:15;;;;;;;4.15;1.08;;;;;;;24.34;33.03;100990.78;16139503;19;129039;-65
2022/09/02 15:22:37;;;;;;;2.40;0.98;;;;;;;24.33;33.41;100978.75;16130837;19;129998;-65
2022/09/02 15:28:00;;;;;;;1.95;0.90;;;;;;;24.33;33.02;100989.09;16136680;19;129226;-65
2022/09/02 15:33:21;;;;;;;11.15;1.25;;;;;;;24.31;33.09;100975.41;16137404;19;129654;-65
2022/09/02 15:38:43;;;;;;;4.47;0.93;;;;;;;24.30;33.14;100962.56;16136044;19;130008;-65
2022/09/02 15:44:08;;;;;;;4.82;1.02;;;;;;;24.29;32.93;100966.47;16135998;19;129795;-66
2022/09/02 15:49:30;;;;;;;4.10;1.05;;;;;;;24.28;33.16;100970.41;16131494;19;129031;-65
2022/09/02 15:54:53;;;;;;;1.75;1.00;;;;;;;24.29;32.88;100965.63;16130974;19;131370;-65
2022/09/02 16:00:15;;;;;;;5.13;0.88;;;;;;;24.25;33.01;100959.78;16127382;19;129022;-65
2022/09/02 16:05:37;;;;;;;7.35;1.00;;;;;;;24.24;33.09;100963.66;16134706;19;129448;-65
2022/09/02 16:11:04;;;;;;;4.13;1.10;;;;;;;24.24;32.87;100956.16;16143802;19;129494;-63
2022/09/02 16:16:26;;;;;;;2.08;0.77;;;;;;;24.23;33.05;100961.97;16148600;19;129115;-66
2022/09/02 16:21:49;;;;;;;1.58;0.85;;;;;;;24.23;32.90;100945.22;16143602;19;129689;-65
2022/09/02 16:27:11;;;;;;;3.60;0.88;;;;;;;24.22;32.69;100944.38;16147376;19;129076;-65
2022/09/02 16:32:34;;;;;;;6.97;0.90;;;;;;;24.21;33.02;100942.72;16143730;19;129375;-66
2022/09/02 16:37:56;;;;;;;8.45;1.20;;;;;;;24.20;32.97;100938.22;16140950;19;129870;-68
2022/09/02 16:43:20;;;;;;;2.10;0.80;;;;;;;24.20;33.32;100932.66;16146005;19;129221;-65
2022/09/02 16:48:42;;;;;;;4.63;0.82;;;;;;;24.21;33.13;100936.25;16145130;19;130670;-61
2022/09/02 16:54:04;;;;;;;4.53;1.00;;;;;;;24.21;33.31;100934.31;16146914;19;128942;-61
2022/09/02 16:59:26;;;;;;;8.13;0.90;;;;;;;24.24;32.84;100928.19;16139355;19;129270;-65
2022/09/02 17:04:48;;;;;;;11.05;0.95;;;;;;;24.26;32.94;100922.31;16143954;19;129908;-62
2022/09/02 17:10:10;;;;;;;5.30;0.82;;;;;;;24.26;32.98;100928.72;16144686;19;129506;-61
2022/09/02 17:15:31;;;;;;;5.53;1.25;;;;;;;24.27;33.03;100924.81;16144900;19;129597;-60
2022/09/02 17:21:11;;;;;;;11.95;1.30;;;;;;;24.29;33.33;100920.91;16139168;19;129032;-61
2022/09/02 17:26:38;;;;;;;5.63;1.15;;;;;;;24.27;33.12;100916.44;16144670;19;129671;-63
2022/09/02 17:32:00;;;;;;;6.40;1.05;;;;;;;24.27;33.29;100916.44;16143071;19;129668;-65
2022/09/02 17:37:21;;;;;;;4.40;0.82;;;;;;;24.27;33.30;100912.81;16144128;19;129027;-60
2022/09/02 17:42:43;;;;;;;8.77;1.02;;;;;;;24.27;33.34;100915.59;16139524;19;129766;-62
2022/09/02 17:48:05;;;;;;;3.60;0.90;;;;;;;24.24;33.16;100918.94;16139172;19;128820;-62
2022/09/02 17:53:46;;;;;;;4.93;1.00;;;;;;;24.23;33.14;100922.84;16143317;19;129777;-62
2022/09/02 17:59:08;;;;;;;13.70;1.00;;;;;;;24.21;33.46;100913.91;16135027;19;129570;-62
2022/09/02 18:04:51;;;;;;;4.47;1.00;;;;;;;24.22;33.31;100910.84;16141350;19;129526;-63
2022/09/02 18:10:13;;;;;;;5.07;1.00;;;;;;;24.20;33.82;100913.06;16139439;19;130188;-68
2022/09/02 18:15:42;;;;;;;7.85;1.95;;;;;;;24.21;33.69;100906.38;16138954;19;129201;-65
2022/09/02 18:21:18;;;;;;;5.00;1.40;;;;;;;24.20;33.51;100912.22;16134319;19;129995;-63
2022/09/02 18:26:57;;;;;;;9.77;1.02;;;;;;;24.19;33.52;100919.78;16140261;19;129486;-62
2022/09/02 18:32:32;;;;;;;25.02;1.98;;;;;;;24.23;33.78;100915.31;16130500;19;130719;-64
2022/09/02 18:38:17;;;;;;;11.43;1.30;;;;;;;24.23;33.28;100909.72;16138728;19;130427;-69
2022/09/02 18:44:06;;;;;;;6.05;0.93;;;;;;;24.24;33.56;100933.78;16132258;19;129467;-64
2022/09/02 18:49:35;;;;;;;8.32;1.15;;;;;;;24.24;33.42;100936.59;16134535;19;129734;-65
2022/09/02 18:55:02;;;;;;;8.57;1.10;;;;;;;24.25;33.64;100935.44;16135308;19;129804;-60
2022/09/02 19:00:24;;;;;;;5.88;0.90;;;;;;;24.24;34.16;100935.69;16134574;19;130270;-61
2022/09/02 19:05:46;;;;;;;8.32;1.20;;;;;;;24.22;33.94;100933.19;16139321;19;130675;-63
2022/09/02 19:11:13;;;;;;;10.60;1.10;;;;;;;24.22;34.10;100932.34;16135292;19;129610;-61
2022/09/02 19:16:37;;;;;;;2.72;0.90;;;;;;;24.22;34.18;100941.59;16136711;19;130106;-59
2022/09/02 19:22:03;;;;;;;8.45;1.88;;;;;;;24.21;34.43;100937.13;16134356;19;130203;-61
2022/09/02 19:27:32;;;;;;;4.18;1.15;;;;;;;24.23;34.41;100940.47;16136695;19;129282;-60
2022/09/02 19:32:58;;;;;;;12.43;1.40;;;;;;;24.24;34.03;100932.91;16136088;19;129343;-60
2022/09/02 19:38:20;;;;;;;6.95;1.45;;;;;;;24.23;34.03;100936.81;16136708;19;129095;-60
2022/09/02 19:43:42;;;;;;;5.13;1.05;;;;;;;24.25;34.37;100937.41;16135165;19;129752;-65
2022/09/02 19:49:04;;;;;;;6.68;1.30;;;;;;;24.26;34.14;100939.91;16146352;19;129573;-66
2022/09/02 19:54:27;;;;;;;6.53;1.15;;;;;;;24.30;33.80;100940.19;16150300;19;129805;-65
2022/09/02 19:59:50;;;;;;;9.90;1.23;;;;;;;24.32;34.01;100931.50;16145382;19;129860;-63
2022/09/02 20:05:12;;;;;;;12.40;1.45;;;;;;;24.33;33.87;100933.19;16149289;19;129247;-62
2022/09/02 20:10:38;;;;;;;4.90;1.10;;;;;;;24.35;33.62;100928.16;16150497;19;129313;-63
2022/09/02 20:16:01;;;;;;;7.50;1.20;;;;;;;24.33;33.56;100925.63;16148916;19;128966;-64
2022/09/02 20:21:26;;;;;;;8.07;1.23;;;;;;;24.35;33.89;100922.56;16145432;19;129348;-64
2022/09/02 20:27:11;;;;;;;10.05;1.40;;;;;;;24.34;33.57;100926.47;16152727;19;128913;-62
2022/09/02 20:32:39;;;;;;;6.18;1.70;;;;;;;24.33;33.79;100933.19;16148254;19;129523;-62
2022/09/02 20:38:19;;;;;;;10.40;1.20;;;;;;;24.31;33.34;100933.47;16147121;19;128890;-61
2022/09/02 20:44:10;;;;;;;3.40;1.10;;;;;;;24.31;33.45;100924.25;16141674;19;129575;-59
2022/09/02 20:49:40;;;;;;;5.63;1.30;;;;;;;24.27;33.22;100919.22;16142107;19;129731;-61
2022/09/02 20:55:20;;;;;;;10.88;1.50;;;;;;;24.27;33.47;100916.44;16142874;19;129824;-60
2022/09/02 21:01:06;;;;;;;9.13;1.13;;;;;;;24.27;33.44;100918.41;16139712;19;129087;-63
2022/09/02 21:06:35;;;;;;;4.30;1.02;;;;;;;24.27;33.59;100919.22;16143029;19;129575;-61
2022/09/02 21:12:17;;;;;;;18.10;1.52;;;;;;;24.25;34.34;100923.44;16144827;19;130403;-61
2022/09/02 21:17:48;;;;;;;11.52;1.50;;;;;;;24.20;34.51;100923.41;16144758;19;128996;-61
2022/09/02 21:23:30;;;;;;;7.82;1.40;;;;;;;24.17;34.43;100929.59;16140688;19;129540;-61
2022/09/02 21:28:58;;;;;;;10.32;1.42;;;;;;;24.12;33.93;100927.66;16143171;19;129026;-60
2022/09/02 21:34:55;;;;;;;1.90;1.00;;;;;;;24.08;34.13;100927.34;16142787;19;130618;-61
2022/09/02 21:40:18;;;;;;;7.38;1.20;;;;;;;24.02;33.83;100927.66;16141152;19;129964;-61
2022/09/02 21:46:05;;;;;;;5.20;1.30;;;;;;;24.01;34.01;100923.19;16141016;19;128839;-61
2022/09/02 21:51:35;;;;;;;;;;;;;;;23.96;33.39;100933.28;16140974;19;129507;-61
2022/09/02 21:57:13;;;;;;;4.18;1.25;;;;;;;23.99;33.69;100931.03;16140732;19;129611;-61
2022/09/02 22:02:45;;;;;;;4.25;1.30;;;;;;;23.95;33.53;100928.81;16136628;19;129826;-61
2022/09/02 22:08:33;;;;;;;7.00;1.23;;;;;;;23.93;33.51;100931.03;16139450;19;129298;-61
2022/09/02 22:14:02;;;;;;;4.85;1.50;;;;;;;23.92;33.44;100943.31;16139500;19;129887;-61
2022/09/02 22:19:28;;;;;;;3.10;1.02;;;;;;;23.90;33.28;100937.19;16142057;19;129534;-61
2022/09/02 22:24:51;;;;;;;6.00;1.70;;;;;;;23.88;33.27;100933.81;16135525;19;129478;-61
2022/09/02 22:30:15;;;;;;;4.78;1.65;;;;;;;23.88;33.17;100939.41;16140288;19;129513;-61
2022/09/02 22:36:06;;;;;;;3.58;1.38;;;;;;;23.88;33.64;100938.59;16139298;19;129689;-61
2022/09/02 22:41:31;;;;;;;1.80;1.20;;;;;;;23.85;33.46;100934.41;16136300;19;129912;-61
2022/09/02 22:52:45;;;;;;;2.90;1.30;;;;;;;23.85;33.40;100940.00;16139190;19;129609;-61
2022/09/02 22:58:22;;;;;;;5.13;1.30;;;;;;;23.85;33.59;100940.00;16135084;19;129160;-62
2022/09/02 23:03:59;;;;;;;2.08;1.10;;;;;;;23.85;33.80;100927.97;16133426;19;129486;-61
2022/09/02 23:09:21;;;;;;;1.83;1.20;;;;;;;23.83;33.67;100928.25;16137449;19;129460;-61
2022/09/02 23:15:20;;;;;;;3.88;1.15;;;;;;;23.84;33.55;100921.56;16136420;19;129905;-61
2022/09/02 23:20:50;;;;;;;3.90;1.63;;;;;;;23.81;33.68;100916.53;16132860;19;129880;-61
2022/09/02 23:26:31;;;;;;;3.28;1.40;;;;;;;23.81;33.46;100917.38;16136913;19;130061;-61
2022/09/02 23:31:59;;;;;;;2.38;1.05;;;;;;;23.81;33.67;100913.75;16137034;19;128825;-61
2022/09/02 23:37:25;;;;;;;3.80;1.27;;;;;;;23.80;33.86;100912.91;16138650;19;129338;-61
2022/09/02 23:42:48;;;;;;;1.15;1.00;;;;;;;23.80;33.59;100914.84;16131621;19;129628;-61
2022/09/02 23:48:53;;;;;;;2.88;1.20;;;;;;;23.81;33.68;100910.94;16191179;19;128763;-61
2022/09/02 23:54:27;;;;;;;2.35;1.10;;;;;;;23.77;33.86;100915.41;16216000;19;129140;-61
2022/09/02 23:59:59;;;;;;;4.25;1.25;;;;;;;23.77;33.83;100915.41;16211157;19;130281;-61
